Strona główna
METAR-TAF:

METAR-TAF

Lotnisko :

Port lotniczy Pontianak-Supadio

Pontianak, Indonezja

Szerokość geograficzna: 00-09S, Długość geograficzna: 109-24E, wysokość: 3 m

Aktualna obserwacja pogody

Raport powstał 20 godziny i 25 minut temu, godzina 08:00 UTC
Wiatr 5 kt od południowy zachód
Temperatura 25°C
Wilgotność 94%
Ciśnienie 1007 hPa
Widzialność: 5000 m
Mało chmury na wysokości 1000 ft, Cumulonimbus.
Przerywane chmury na wysokości 1100 ft
słaby deszcz

METAR: WIOO 100800Z 23005KT 5000 -RA FEW010CB BKN011 25/24 Q1007 RETS NOSIG

czas: 11:25 (04:25 UTC)


TAF: brakujący

Obserwacja i prognoza pogody dla ponad 4000 lotnisk (raport METAR i TAF).

Dostępne stacje oznaczono żółtymi i czerwonymi punktami na mapie.

Najedź kursorem aby zobaczyć nazwę stacji.

Kliknij aby zobaczyć obserwacje i prognozy pogody.

Aby zmienić mapę: kliknij na zielony przycisk z czarnym krzyżykiem, aby powiększyć; na zielony przycisk z myślnikiem, aby pomniejszyć; na zielone strzałki, aby przejść do map sąsiednich.


METAR-TAF: